Time;durP1;ratioP1;P1;durP2;ratioP2;P2;SDS_P1;SDS_P2;PMS_P1;PMS_P2;Temp;Humidity;BMP_temperature;BMP_pressure;BME280_temperature;BME280_humidity;BME280_pressure;Samples;Min_cycle;Max_cycle;Signal;HPM_P1;HPM_P2
2022/10/02 00:01:32;;;;;;;21.60;5.30;;;15.90;98.20;;;;;;4998188;28;20171;-88
2022/10/02 00:04:00;;;;;;;22.63;5.47;;;15.80;99.50;;;;;;4998673;28;20163;-88
2022/10/02 00:06:36;;;;;;;25.47;5.10;;;15.80;99.90;;;;;;5018058;28;20171;-88
2022/10/02 00:09:03;;;;;;;28.97;6.70;;;15.80;99.90;;;;;;5003649;28;20182;-87
2022/10/02 00:11:44;;;;;;;25.60;5.13;;;15.80;99.90;;;;;;5018862;28;20182;-89
2022/10/02 00:14:17;;;;;;;32.30;5.97;;;15.90;99.90;;;;;;5019087;28;20205;-88
2022/10/02 00:16:50;;;;;;;25.00;5.87;;;15.90;99.90;;;;;;5019081;28;20159;-88
2022/10/02 00:19:18;;;;;;;26.40;6.20;;;15.90;99.90;;;;;;5017885;28;20187;-87
2022/10/02 00:22:00;;;;;;;25.27;5.93;;;15.90;99.60;;;;;;5019132;28;20167;-88
2022/10/02 00:24:46;;;;;;;32.17;6.93;;;15.90;99.40;;;;;;5018651;28;20197;-88
2022/10/02 00:27:34;;;;;;;27.23;6.20;;;16.00;98.40;;;;;;5018355;28;20189;-86
2022/10/02 00:30:02;;;;;;;26.43;6.33;;;16.00;97.60;;;;;;5019301;28;20182;-88
2022/10/02 00:33:24;;;;;;;;;;;;;;;;;;;;;
2022/10/02 00:36:03;;;;;;;26.73;6.40;;;15.90;99.90;;;;;;5019506;28;20191;-87
2022/10/02 00:38:57;;;;;;;29.37;5.70;;;15.90;99.50;;;;;;5019042;28;20183;-89
2022/10/02 00:41:46;;;;;;;25.70;6.27;;;15.90;99.20;;;;;;5018883;28;20163;-90
2022/10/02 00:44:41;;;;;;;23.43;5.93;;;15.90;99.30;;;;;;5019223;28;20198;-88
2022/10/02 00:47:23;;;;;;;27.53;6.13;;;15.90;99.80;;;;;;5019000;28;20163;-89
2022/10/02 00:50:20;;;;;;;20.47;5.67;;;15.80;99.90;;;;;;5017604;28;20159;-89
2022/10/02 00:53:21;;;;;;;27.17;5.80;;;15.80;99.90;;;;;;5018345;28;20195;-88
2022/10/02 00:56:25;;;;;;;24.77;6.07;;;15.80;99.90;;;;;;5018414;28;20170;-88
2022/10/02 00:59:33;;;;;;;23.03;4.90;;;15.90;99.90;;;;;;5021217;28;20175;-87
2022/10/02 01:02:39;;;;;;;25.13;5.43;;;15.90;99.80;;;;;;5020491;28;20221;-87
2022/10/02 01:05:20;;;;;;;22.97;5.37;;;15.90;99.30;;;;;;5002696;28;20197;-87
2022/10/02 01:07:53;;;;;;;24.63;5.80;;;15.90;99.50;;;;;;5000360;28;20202;-87
2022/10/02 01:14:06;;;;;;;22.77;5.10;;;15.80;99.90;;;;;;5014404;28;20283;-88
2022/10/02 01:16:44;;;;;;;24.93;5.80;;;15.70;99.90;;;;;;4998443;28;20189;-88
2022/10/02 01:19:25;;;;;;;21.20;5.13;;;15.70;99.90;;;;;;4997402;28;20169;-89
2022/10/02 01:22:30;;;;;;;24.20;5.03;;;15.70;99.90;;;;;;5008502;28;20190;-87
2022/10/02 01:24:58;;;;;;;24.50;5.73;;;15.80;99.90;;;;;;4995685;28;20159;-87
2022/10/02 01:27:26;;;;;;;17.27;5.20;;;15.90;99.90;;;;;;4995018;28;20174;-88
2022/10/02 01:30:13;;;;;;;25.23;5.27;;;15.90;99.90;;;;;;4994916;28;20632;-89
2022/10/02 01:33:08;;;;;;;22.73;5.43;;;15.70;99.90;;;;;;4995215;28;20197;-89
2022/10/02 01:35:37;;;;;;;22.87;5.57;;;15.70;99.90;;;;;;4999475;28;20275;-87
2022/10/02 01:38:08;;;;;;;23.93;5.53;;;15.70;99.90;;;;;;5012459;28;20181;-87
2022/10/02 01:40:36;;;;;;;19.80;4.70;;;15.60;99.90;;;;;;4996151;28;20207;-87
2022/10/02 01:43:23;;;;;;;21.87;4.97;;;15.60;99.90;;;;;;4980287;28;20179;-89
2022/10/02 01:45:57;;;;;;;25.63;5.97;;;15.60;99.90;;;;;;5011690;28;20171;-88
2022/10/02 01:48:46;;;;;;;20.93;5.37;;;15.80;99.90;;;;;;5016027;28;20198;-88
2022/10/02 01:51:19;;;;;;;25.20;5.57;;;15.90;99.90;;;;;;5010057;28;20250;-88
2022/10/02 01:54:14;;;;;;;21.00;4.93;;;15.80;99.90;;;;;;5011955;28;20219;-88
2022/10/02 01:56:46;;;;;;;22.90;5.20;;;15.60;99.90;;;;;;5009816;28;20183;-88
2022/10/02 01:59:49;;;;;;;17.33;4.37;;;15.60;99.90;;;;;;5016037;28;20163;-89
2022/10/02 02:02:34;;;;;;;21.57;5.43;;;15.60;99.90;;;;;;5017216;28;20187;-88
2022/10/02 02:05:38;;;;;;;19.43;4.53;;;15.60;99.90;;;;;;5014576;28;20186;-88
2022/10/02 02:08:12;;;;;;;25.40;5.77;;;15.60;99.90;;;;;;4995974;28;20199;-89
2022/10/02 02:11:00;;;;;;;21.23;4.83;;;15.70;99.90;;;;;;4999640;28;20183;-86
2022/10/02 02:13:49;;;;;;;19.40;4.57;;;15.70;99.90;;;;;;4998440;28;20202;-88
2022/10/02 02:16:30;;;;;;;20.87;4.40;;;15.70;99.90;;;;;;4995764;28;20167;-87
2022/10/02 02:19:06;;;;;;;22.43;5.50;;;15.70;99.90;;;;;;4995282;28;20175;-89
2022/10/02 02:21:39;;;;;;;19.97;5.47;;;15.60;99.90;;;;;;4996705;28;20502;-89
2022/10/02 02:24:32;;;;;;;19.40;5.17;;;15.60;99.90;;;;;;4994774;28;20202;-89
2022/10/02 02:27:07;;;;;;;17.47;4.27;;;15.60;99.90;;;;;;4991544;28;20180;-87
2022/10/02 02:29:55;;;;;;;23.07;4.83;;;15.60;99.90;;;;;;4994362;28;20178;-87
2022/10/02 02:32:26;;;;;;;19.40;4.60;;;15.60;99.90;;;;;;4994706;28;20206;-87
2022/10/02 02:35:02;;;;;;;19.13;4.73;;;15.70;99.90;;;;;;4993559;28;20183;-88
2022/10/02 02:37:32;;;;;;;18.40;4.70;;;15.60;99.90;;;;;;4992706;28;20171;-88
2022/10/02 02:40:03;;;;;;;18.70;4.80;;;15.50;99.90;;;;;;4994780;28;20576;-87
2022/10/02 02:42:32;;;;;;;16.37;4.93;;;15.50;99.90;;;;;;4998548;28;20175;-87
2022/10/02 02:45:23;;;;;;;16.07;4.07;;;15.50;99.90;;;;;;4997973;28;20182;-88
2022/10/02 02:47:54;;;;;;;20.97;5.13;;;15.50;99.90;;;;;;4997307;28;20604;-88
2022/10/02 02:50:34;;;;;;;21.20;5.13;;;15.50;99.90;;;;;;5003066;28;20190;-88
2022/10/02 02:53:15;;;;;;;18.30;4.83;;;15.50;99.90;;;;;;5000608;28;20313;-90
2022/10/02 02:56:08;;;;;;;21.47;4.40;;;15.40;99.90;;;;;;4997378;28;20623;-88
2022/10/02 02:58:40;;;;;;;14.60;4.10;;;15.40;99.90;;;;;;4995937;28;20554;-89
2022/10/02 03:01:06;;;;;;;18.90;5.10;;;15.50;99.90;;;;;;4997023;28;20179;-88
2022/10/02 03:03:33;;;;;;;18.20;4.57;;;15.50;99.90;;;;;;5002893;28;20187;-88
2022/10/02 03:06:30;;;;;;;17.97;5.40;;;15.50;99.90;;;;;;5020663;28;20178;-87
2022/10/02 03:08:57;;;;;;;17.50;5.23;;;15.40;99.90;;;;;;5005943;28;20187;-90
2022/10/02 03:11:47;;;;;;;17.57;4.90;;;15.50;99.90;;;;;;5003216;28;20171;-88
2022/10/02 03:14:53;;;;;;;17.47;4.57;;;15.50;99.90;;;;;;4997223;28;20281;-88
2022/10/02 03:17:49;;;;;;;16.37;4.53;;;15.40;99.90;;;;;;4997114;28;20202;-88
2022/10/02 03:20:15;;;;;;;19.97;4.67;;;15.40;99.90;;;;;;4997780;28;20168;-87
2022/10/02 03:23:29;;;;;;;16.23;4.60;;;15.40;99.90;;;;;;4998383;28;20167;-89
2022/10/02 03:26:12;;;;;;;14.00;4.17;;;15.40;99.90;;;;;;4993479;28;20590;-88
2022/10/02 03:28:52;;;;;;;13.93;3.60;;;15.30;99.90;;;;;;5011921;28;20164;-87
2022/10/02 03:31:20;;;;;;;11.63;3.07;;;15.30;99.90;;;;;;5018402;28;20285;-88
2022/10/02 03:33:47;;;;;;;8.17;3.03;;;15.40;99.90;;;;;;5004854;28;20229;-89
2022/10/02 03:36:16;;;;;;;8.50;2.83;;;15.50;99.90;;;;;;5014231;28;20246;-88
2022/10/02 03:38:43;;;;;;;10.87;3.10;;;15.50;99.90;;;;;;4999539;28;20189;-89
2022/10/02 03:41:13;;;;;;;11.33;3.47;;;15.40;99.90;;;;;;4996617;28;20631;-88
2022/10/02 03:43:38;;;;;;;9.70;2.70;;;15.50;99.90;;;;;;4996442;28;20182;-88
2022/10/02 03:46:04;;;;;;;8.00;2.23;;;15.50;99.90;;;;;;4996698;28;20179;-87
2022/10/02 03:48:31;;;;;;;7.30;2.27;;;15.50;99.90;;;;;;4996266;28;20570;-88
2022/10/02 03:50:57;;;;;;;10.80;2.30;;;15.50;99.90;;;;;;5006029;28;20182;-86
2022/10/02 03:53:31;;;;;;;8.50;2.30;;;15.50;99.90;;;;;;5007333;28;20237;-87
2022/10/02 03:56:02;;;;;;;8.10;2.40;;;15.40;99.90;;;;;;5013578;28;20183;-87
2022/10/02 03:58:32;;;;;;;10.87;2.47;;;15.30;99.90;;;;;;5019169;28;20193;-88
2022/10/02 04:01:06;;;;;;;10.57;3.17;;;15.30;99.90;;;;;;5017726;28;20174;-87
2022/10/02 04:03:47;;;;;;;12.03;2.87;;;15.20;99.90;;;;;;5018900;28;20155;-88
2022/10/02 04:06:17;;;;;;;10.33;3.40;;;15.20;99.90;;;;;;5018486;28;20182;-88
2022/10/02 04:08:52;;;;;;;10.67;3.13;;;15.20;99.90;;;;;;5017807;28;20194;-89
2022/10/02 04:11:26;;;;;;;12.10;3.53;;;15.30;99.90;;;;;;5016320;28;20165;-87
2022/10/02 04:14:19;;;;;;;11.87;3.77;;;15.30;99.90;;;;;;5008186;28;20226;-88
2022/10/02 04:17:10;;;;;;;16.23;3.80;;;15.30;99.90;;;;;;5014393;28;20218;-89
2022/10/02 04:19:47;;;;;;;13.07;3.53;;;15.20;99.90;;;;;;5017819;28;20167;-87
2022/10/02 04:22:21;;;;;;;11.20;3.40;;;15.20;99.90;;;;;;5018387;28;20162;-88
2022/10/02 04:25:27;;;;;;;12.97;3.47;;;15.10;99.90;;;;;;5017893;28;20199;-86
2022/10/02 04:28:04;;;;;;;13.33;3.37;;;15.20;99.90;;;;;;5016521;28;20170;-87
2022/10/02 04:30:33;;;;;;;14.43;3.33;;;15.20;99.90;;;;;;5016303;28;20186;-85
2022/10/02 04:33:11;;;;;;;15.23;3.97;;;15.30;99.90;;;;;;5015445;28;20212;-88
2022/10/02 04:35:51;;;;;;;14.40;3.40;;;15.30;99.90;;;;;;5008551;28;20194;-87
2022/10/02 04:38:38;;;;;;;12.90;3.17;;;15.30;99.90;;;;;;5001784;28;20249;-88
2022/10/02 04:41:33;;;;;;;15.27;3.57;;;15.30;99.90;;;;;;4996819;28;20199;-88
2022/10/02 04:44:11;;;;;;;12.00;3.30;;;15.30;99.90;;;;;;4994574;28;20262;-88
2022/10/02 04:47:01;;;;;;;9.07;2.70;;;15.30;99.90;;;;;;4993607;28;20174;-87
2022/10/02 04:50:08;;;;;;;14.23;3.50;;;15.30;99.90;;;;;;4996538;28;20175;-87
2022/10/02 04:52:43;;;;;;;18.30;3.97;;;15.40;99.90;;;;;;4983687;28;20209;-88
2022/10/02 04:55:21;;;;;;;12.43;3.73;;;15.40;99.90;;;;;;4994296;28;20190;-89
2022/10/02 04:58:08;;;;;;;12.53;3.27;;;15.40;99.90;;;;;;4993016;28;20633;-88
2022/10/02 05:01:06;;;;;;;13.87;3.03;;;15.30;99.90;;;;;;4995635;28;20222;-87
2022/10/02 05:03:50;;;;;;;13.13;2.97;;;15.20;99.90;;;;;;4988607;28;20190;-86
2022/10/02 05:06:30;;;;;;;14.10;3.87;;;15.10;99.90;;;;;;4953369;28;1161234;-87
2022/10/02 05:09:31;;;;;;;13.37;3.53;;;15.20;99.90;;;;;;4993538;28;20631;-88
2022/10/02 05:12:28;;;;;;;12.37;3.50;;;15.20;99.90;;;;;;4994317;28;20183;-88
2022/10/02 05:15:09;;;;;;;15.20;3.23;;;15.30;99.90;;;;;;4994284;28;20178;-88
2022/10/02 05:17:40;;;;;;;12.23;3.13;;;15.30;99.90;;;;;;4994020;28;20201;-87
2022/10/02 05:20:25;;;;;;;12.77;3.40;;;15.30;99.90;;;;;;4994100;28;20218;-88
2022/10/02 05:23:17;;;;;;;14.53;3.60;;;15.30;99.90;;;;;;4994662;28;20568;-89
2022/10/02 05:26:10;;;;;;;12.77;3.80;;;15.40;99.90;;;;;;4995253;28;20182;-88
2022/10/02 05:29:10;;;;;;;15.23;3.27;;;15.40;99.90;;;;;;4993495;28;20170;-89
2022/10/02 05:32:04;;;;;;;11.47;2.70;;;15.40;99.90;;;;;;4993588;28;20174;-87
2022/10/02 05:34:49;;;;;;;11.83;3.43;;;15.30;99.90;;;;;;4993611;28;20635;-87
2022/10/02 05:37:44;;;;;;;11.30;3.00;;;15.20;99.90;;;;;;4994597;28;20654;-89
2022/10/02 05:40:39;;;;;;;10.90;3.20;;;15.20;99.90;;;;;;4994300;28;20181;-87
2022/10/02 05:43:14;;;;;;;14.27;3.80;;;15.10;99.90;;;;;;4988332;28;20247;-87
2022/10/02 05:45:47;;;;;;;10.87;3.50;;;15.00;99.90;;;;;;5000501;28;20181;-88
2022/10/02 05:48:22;;;;;;;11.50;2.80;;;15.10;99.90;;;;;;4998311;28;20167;-87
2022/10/02 05:50:52;;;;;;;12.37;3.40;;;15.20;99.90;;;;;;5002133;28;20181;-87
2022/10/02 05:53:32;;;;;;;12.57;3.47;;;15.10;99.90;;;;;;5001251;28;20218;-88
2022/10/02 05:56:17;;;;;;;11.30;3.77;;;15.20;99.90;;;;;;4994956;28;20210;-87
2022/10/02 05:58:50;;;;;;;8.13;3.40;;;15.20;99.90;;;;;;4994916;28;20270;-87
2022/10/02 06:01:26;;;;;;;12.60;3.53;;;15.30;99.90;;;;;;4995520;28;20186;-88
2022/10/02 06:04:07;;;;;;;10.23;3.30;;;15.30;99.90;;;;;;5001962;28;20230;-87
2022/10/02 06:06:47;;;;;;;11.77;3.43;;;15.20;99.90;;;;;;5005444;28;20281;-87
2022/10/02 06:09:16;;;;;;;9.57;2.97;;;15.20;99.90;;;;;;4995357;28;20182;-88
2022/10/02 06:12:06;;;;;;;11.30;2.93;;;15.30;99.90;;;;;;4994074;28;20269;-88
2022/10/02 06:14:55;;;;;;;10.73;2.70;;;15.30;99.90;;;;;;5004755;28;20199;-87
2022/10/02 06:17:27;;;;;;;10.03;2.97;;;15.20;99.90;;;;;;5021219;28;20209;-87
2022/10/02 06:20:16;;;;;;;9.90;2.90;;;15.30;99.90;;;;;;5018348;28;20183;-86
2022/10/02 06:22:48;;;;;;;14.03;3.23;;;15.30;99.90;;;;;;5007892;28;20175;-88
2022/10/02 06:25:20;;;;;;;13.00;3.40;;;15.20;99.90;;;;;;5004336;28;20179;-88
2022/10/02 06:27:54;;;;;;;12.17;2.80;;;15.30;99.90;;;;;;4999205;28;20163;-89
2022/10/02 06:30:20;;;;;;;12.47;2.80;;;15.20;99.90;;;;;;4999626;28;20182;-88
2022/10/02 06:33:13;;;;;;;8.87;2.53;;;15.40;99.90;;;;;;5004649;28;20285;-89
2022/10/02 06:36:06;;;;;;;9.80;3.00;;;15.20;99.90;;;;;;5002454;28;20195;-88
2022/10/02 06:38:34;;;;;;;10.97;3.40;;;15.20;99.90;;;;;;4998048;28;20664;-87
2022/10/02 06:41:18;;;;;;;11.43;3.03;;;15.20;99.90;;;;;;4998132;28;20171;-89
2022/10/02 06:44:12;;;;;;;12.77;3.40;;;15.20;99.90;;;;;;4998218;28;20766;-87
2022/10/02 06:46:49;;;;;;;12.80;3.40;;;15.30;99.90;;;;;;5001198;28;20285;-87
2022/10/02 06:49:48;;;;;;;12.20;2.90;;;15.30;99.90;;;;;;4999027;28;20637;-86
2022/10/02 06:52:41;;;;;;;10.73;3.17;;;15.10;99.90;;;;;;4998411;28;20259;-87
2022/10/02 06:55:13;;;;;;;10.80;2.97;;;15.20;99.90;;;;;;4999012;28;20179;-86
2022/10/02 06:58:00;;;;;;;9.30;2.93;;;15.20;99.90;;;;;;5016876;28;20212;-89
2022/10/02 07:00:26;;;;;;;8.60;2.90;;;15.10;99.90;;;;;;5014514;28;20178;-87
2022/10/02 07:03:16;;;;;;;10.20;3.20;;;15.10;99.90;;;;;;5000869;28;20679;-87
2022/10/02 07:05:57;;;;;;;9.67;3.17;;;14.90;99.90;;;;;;4999447;28;20179;-89
2022/10/02 07:08:37;;;;;;;9.33;3.57;;;14.90;99.90;;;;;;4997072;28;20189;-88
2022/10/02 07:11:38;;;;;;;9.07;4.07;;;14.80;99.90;;;;;;4997235;28;20175;-89
2022/10/02 07:14:40;;;;;;;8.77;3.23;;;14.80;99.90;;;;;;4998079;28;20209;-87
2022/10/02 07:17:25;;;;;;;11.27;4.37;;;14.80;99.90;;;;;;5009453;28;20172;-87
2022/10/02 07:20:21;;;;;;;12.00;3.93;;;15.00;99.90;;;;;;5015858;28;20316;-87
2022/10/02 07:22:56;;;;;;;10.73;4.20;;;15.00;99.90;;;;;;5016135;28;20179;-86
2022/10/02 07:25:46;;;;;;;9.10;3.70;;;14.90;99.90;;;;;;5011486;28;20273;-88
2022/10/02 07:28:38;;;;;;;10.47;4.13;;;14.90;99.90;;;;;;5013395;28;20236;-86
2022/10/02 07:31:06;;;;;;;11.20;4.00;;;14.90;99.90;;;;;;5013092;28;20171;-89
2022/10/02 07:33:35;;;;;;;12.17;4.37;;;14.90;99.90;;;;;;5004557;28;20237;-87
2022/10/02 07:36:48;;;;;;;10.43;4.30;;;15.00;99.90;;;;;;5004308;28;20191;-88
2022/10/02 07:39:32;;;;;;;8.60;3.80;;;15.10;99.90;;;;;;4993701;28;20187;-89
2022/10/02 07:42:03;;;;;;;11.43;4.57;;;15.30;99.90;;;;;;5002112;28;20244;-90
2022/10/02 07:45:10;;;;;;;13.37;4.10;;;15.40;99.90;;;;;;5002616;28;20291;-88
2022/10/02 07:47:57;;;;;;;10.40;3.73;;;15.40;99.90;;;;;;4991041;28;20248;-90
2022/10/02 07:50:34;;;;;;;13.47;4.50;;;15.40;99.90;;;;;;5004798;28;20171;-88
2022/10/02 07:53:17;;;;;;;12.77;4.30;;;15.40;99.90;;;;;;5003945;28;20208;-89
2022/10/02 07:55:47;;;;;;;9.30;3.73;;;15.20;99.90;;;;;;5006495;28;20254;-90
2022/10/02 07:58:37;;;;;;;10.37;3.50;;;15.30;99.90;;;;;;5009389;28;20167;-88
2022/10/02 08:01:15;;;;;;;10.10;3.57;;;15.20;99.90;;;;;;5011976;28;20159;-89
2022/10/02 08:03:59;;;;;;;10.90;3.80;;;15.30;99.90;;;;;;5014002;28;20175;-88
2022/10/02 08:06:26;;;;;;;11.57;3.97;;;15.40;99.90;;;;;;5015147;28;20194;-88
2022/10/02 08:09:03;;;;;;;10.03;3.10;;;15.50;99.90;;;;;;5009501;28;20183;-90
2022/10/02 08:11:39;;;;;;;8.53;3.27;;;15.20;99.90;;;;;;5006705;28;20171;-90
2022/10/02 08:14:41;;;;;;;8.70;2.80;;;15.30;99.90;;;;;;5009483;28;20210;-88
2022/10/02 08:20:35;;;;;;;7.97;2.70;;;15.30;99.90;;;;;;5017438;28;20181;-92
2022/10/02 08:23:32;;;;;;;8.20;2.83;;;15.30;99.90;;;;;;5002220;28;20168;-90
2022/10/02 08:26:03;;;;;;;8.43;2.40;;;15.30;99.90;;;;;;5002581;28;20170;-90
2022/10/02 08:28:30;;;;;;;7.53;2.40;;;15.20;99.90;;;;;;5018344;28;20181;-92
2022/10/02 08:31:13;;;;;;;8.10;2.53;;;15.10;99.90;;;;;;5017517;28;20179;-91
2022/10/02 08:33:42;;;;;;;6.53;2.30;;;15.20;99.90;;;;;;5015938;28;20278;-90
2022/10/02 08:36:50;;;;;;;9.90;2.57;;;15.30;99.90;;;;;;5014915;28;20198;-90
2022/10/02 08:39:24;;;;;;;8.07;2.60;;;15.20;99.90;;;;;;5011609;28;20190;-92
2022/10/02 08:42:28;;;;;;;8.93;2.53;;;15.30;99.90;;;;;;5005214;28;20627;-91
2022/10/02 08:45:26;;;;;;;5.50;2.17;;;15.30;99.90;;;;;;5016006;28;20189;-93
2022/10/02 08:48:21;;;;;;;6.03;2.00;;;15.20;99.90;;;;;;5015566;28;20179;-93
2022/10/02 08:51:13;;;;;;;7.10;2.40;;;15.10;99.90;;;;;;5016776;28;20250;-93
2022/10/02 08:54:20;;;;;;;6.43;2.67;;;15.30;99.90;;;;;;5018235;28;20198;-91
2022/10/02 08:57:05;;;;;;;5.40;2.40;;;15.20;99.90;;;;;;5015760;28;20175;-90
2022/10/02 08:59:51;;;;;;;7.07;2.30;;;15.30;99.90;;;;;;5018549;28;20166;-91
2022/10/02 09:02:56;;;;;;;12.37;2.80;;;15.30;99.90;;;;;;5014848;28;20173;-91
2022/10/02 09:06:12;;;;;;;7.67;2.70;;;15.30;99.90;;;;;;5001947;28;20216;-92
2022/10/02 09:09:15;;;;;;;6.23;2.63;;;15.30;99.90;;;;;;4971412;28;20206;-88
2022/10/02 09:12:04;;;;;;;9.13;3.30;;;15.40;99.90;;;;;;5005202;28;20326;-91
2022/10/02 09:14:51;;;;;;;5.67;2.80;;;15.40;99.90;;;;;;5008101;28;20635;-93
2022/10/02 09:17:41;;;;;;;7.50;2.63;;;15.50;99.90;;;;;;5010024;28;20170;-91
2022/10/02 09:20:46;;;;;;;7.40;2.83;;;15.50;99.90;;;;;;5007125;28;20201;-92
2022/10/02 09:23:35;;;;;;;6.03;2.67;;;15.40;99.90;;;;;;4992294;28;20188;-88
2022/10/02 09:26:35;;;;;;;8.50;2.60;;;15.40;99.90;;;;;;5014401;28;20192;-92
2022/10/02 09:29:27;;;;;;;6.20;2.67;;;15.40;99.90;;;;;;5016976;28;20165;-93
2022/10/02 09:32:42;;;;;;;8.57;2.90;;;15.40;99.90;;;;;;4988080;28;20182;-93
2022/10/02 09:35:47;;;;;;;6.43;3.20;;;15.40;99.90;;;;;;4999986;28;20549;-94
2022/10/02 09:38:43;;;;;;;7.50;3.00;;;15.30;99.90;;;;;;5003518;28;20162;-90
2022/10/02 09:41:40;;;;;;;6.00;3.03;;;15.20;99.90;;;;;;5001439;28;20194;-90
2022/10/02 09:44:44;;;;;;;5.67;3.03;;;15.30;99.90;;;;;;5000047;28;20160;-93
2022/10/02 09:51:08;;;;;;;7.03;3.20;;;15.30;99.90;;;;;;5001608;28;20735;-89
2022/10/02 09:54:20;;;;;;;7.50;2.87;;;15.30;99.90;;;;;;5006943;28;20218;-94
2022/10/02 09:57:11;;;;;;;5.57;3.00;;;15.30;99.90;;;;;;5003130;28;20183;-92
2022/10/02 10:00:05;;;;;;;5.87;2.90;;;15.30;99.90;;;;;;5005737;28;20197;-90
2022/10/02 10:03:12;;;;;;;5.93;3.20;;;15.20;99.90;;;;;;5003015;28;20175;-90
2022/10/02 10:06:07;;;;;;;7.17;2.97;;;15.30;99.90;;;;;;5008935;28;20185;-91
2022/10/02 10:09:04;;;;;;;6.93;2.60;;;15.20;99.90;;;;;;5016926;28;20186;-91
2022/10/02 10:12:04;;;;;;;6.10;2.93;;;15.20;99.90;;;;;;5011529;28;20178;-91
2022/10/02 10:14:52;;;;;;;6.03;2.50;;;15.30;99.90;;;;;;5001777;28;20224;-91
2022/10/02 10:17:59;;;;;;;5.17;2.30;;;15.30;99.90;;;;;;5006496;28;20178;-93
2022/10/02 10:20:52;;;;;;;6.33;2.73;;;15.30;99.90;;;;;;5015070;28;20282;-92
2022/10/02 10:23:35;;;;;;;5.80;2.50;;;15.30;99.90;;;;;;5005172;28;20254;-92
2022/10/02 10:26:44;;;;;;;7.83;2.43;;;15.20;99.90;;;;;;5005924;28;20175;-94
2022/10/02 10:29:30;;;;;;;6.40;2.90;;;15.30;99.90;;;;;;5014615;28;20190;-94
2022/10/02 10:32:25;;;;;;;5.60;2.70;;;15.30;99.90;;;;;;5019905;28;20209;-92
2022/10/02 10:35:25;;;;;;;6.40;3.00;;;15.40;99.90;;;;;;5020262;28;20170;-91
2022/10/02 10:40:50;;;;;;;7.60;3.03;;;15.60;99.90;;;;;;5007729;28;20325;-91
2022/10/02 10:43:36;;;;;;;5.67;2.70;;;15.60;99.90;;;;;;5007548;28;20645;-88
2022/10/02 10:46:35;;;;;;;5.20;3.00;;;15.60;99.90;;;;;;4993426;28;20171;-89
2022/10/02 10:49:04;;;;;;;7.77;2.47;;;15.50;99.90;;;;;;4997296;28;20172;-89
2022/10/02 10:51:49;;;;;;;5.20;2.53;;;15.50;99.90;;;;;;4999061;28;20190;-92
2022/10/02 10:54:47;;;;;;;5.97;2.43;;;15.50;99.90;;;;;;5000614;28;20191;-91
2022/10/02 10:57:24;;;;;;;5.60;2.07;;;15.50;99.90;;;;;;4993071;28;20187;-91
2022/10/02 11:00:21;;;;;;;4.73;2.40;;;15.50;99.90;;;;;;4992676;28;20167;-91
2022/10/02 11:03:27;;;;;;;5.23;2.70;;;15.60;99.90;;;;;;4984731;28;20242;-93
2022/10/02 11:06:18;;;;;;;6.97;2.73;;;15.60;99.90;;;;;;4990085;28;20168;-92
2022/10/02 11:08:53;;;;;;;6.87;2.90;;;15.80;99.90;;;;;;4988440;28;20187;-92
2022/10/02 11:11:56;;;;;;;6.30;2.70;;;15.70;99.90;;;;;;4990860;28;20188;-90
2022/10/02 11:14:56;;;;;;;5.93;2.27;;;15.80;99.90;;;;;;4993291;28;20237;-92
2022/10/02 11:17:52;;;;;;;5.37;2.37;;;15.90;99.90;;;;;;4990954;28;20191;-90
2022/10/02 11:20:44;;;;;;;5.30;2.40;;;16.00;99.90;;;;;;4989308;28;20174;-90
2022/10/02 11:23:47;;;;;;;4.20;2.20;;;16.00;99.90;;;;;;4982456;28;20275;-92
2022/10/02 11:26:58;;;;;;;4.87;2.47;;;16.00;99.90;;;;;;4984353;28;20187;-90
2022/10/02 11:29:33;;;;;;;7.13;3.00;;;16.10;99.90;;;;;;4967607;28;20172;-89
2022/10/02 11:32:36;;;;;;;5.97;2.60;;;16.00;99.90;;;;;;4979811;28;20199;-92
2022/10/02 11:35:47;;;;;;;7.93;2.73;;;16.10;99.90;;;;;;4979564;28;20187;-89
2022/10/02 11:38:22;;;;;;;4.57;2.43;;;16.00;99.90;;;;;;4997520;28;20182;-90
2022/10/02 11:40:54;;;;;;;6.27;2.77;;;15.90;99.90;;;;;;4996922;28;20183;-90
2022/10/02 11:43:45;;;;;;;6.53;2.80;;;15.80;99.90;;;;;;4992099;28;20219;-89
2022/10/02 11:46:24;;;;;;;5.20;2.53;;;15.90;99.90;;;;;;4998102;28;20160;-90
2022/10/02 11:49:04;;;;;;;6.90;2.60;;;15.90;99.90;;;;;;4997904;28;20174;-89
2022/10/02 11:52:07;;;;;;;5.30;3.10;;;15.90;99.90;;;;;;4999525;28;20156;-89
2022/10/02 11:55:03;;;;;;;6.87;3.10;;;15.90;99.90;;;;;;4999704;28;20185;-87
2022/10/02 12:01:29;;;;;;;6.57;4.10;;;15.80;99.90;;;;;;5000591;28;20172;-89
2022/10/02 12:04:08;;;;;;;9.63;5.20;;;15.90;99.90;;;;;;4996119;28;20168;-89
2022/10/02 12:07:29;;;;;;;7.60;4.20;;;15.80;99.90;;;;;;4985166;28;20164;-87
2022/10/02 12:14:02;;;;;;;6.73;3.10;;;16.00;99.90;;;;;;4980338;28;20206;-91
2022/10/02 12:16:33;;;;;;;6.70;2.90;;;16.00;99.90;;;;;;4977405;28;20187;-89
2022/10/02 12:19:38;;;;;;;6.83;3.10;;;15.90;99.90;;;;;;4978368;28;20192;-88
2022/10/02 12:28:35;;;;;;;6.33;3.20;;;16.10;99.90;;;;;;5007121;28;20196;-88
2022/10/02 12:31:14;;;;;;;5.30;2.93;;;16.10;99.90;;;;;;5005098;28;20175;-90
2022/10/02 12:33:51;;;;;;;6.37;3.40;;;16.00;99.90;;;;;;5008125;28;20210;-88
2022/10/02 12:36:25;;;;;;;6.57;3.37;;;15.90;99.90;;;;;;5015462;28;20270;-86
2022/10/02 12:39:23;;;;;;;7.10;3.30;;;16.00;99.90;;;;;;5023246;28;20184;-89
2022/10/02 12:42:14;;;;;;;5.67;3.63;;;16.00;99.90;;;;;;5010625;28;20171;-90
2022/10/02 12:45:08;;;;;;;6.10;3.67;;;16.10;99.90;;;;;;5001563;28;20266;-88
2022/10/02 12:48:06;;;;;;;7.87;4.00;;;16.10;99.90;;;;;;5000212;28;20187;-89
2022/10/02 12:50:43;;;;;;;6.77;3.00;;;16.30;99.90;;;;;;5007027;28;20189;-90
2022/10/02 12:53:43;;;;;;;7.70;4.03;;;16.30;99.90;;;;;;5022640;28;20201;-88
2022/10/02 12:56:45;;;;;;;6.40;4.07;;;16.30;99.90;;;;;;5007336;28;20241;-86
2022/10/02 12:59:35;;;;;;;6.57;3.87;;;16.10;99.90;;;;;;5005032;28;20182;-89
2022/10/02 13:02:50;;;;;;;9.93;4.43;;;16.10;99.90;;;;;;5000750;28;20250;-90
2022/10/02 13:05:41;;;;;;;7.20;3.97;;;16.30;99.90;;;;;;4998411;28;20190;-89
2022/10/02 13:08:29;;;;;;;8.47;5.03;;;16.30;99.90;;;;;;4999048;28;20194;-89
2022/10/02 13:11:19;;;;;;;9.47;4.83;;;16.30;99.90;;;;;;4999687;28;20580;-90
2022/10/02 13:14:04;;;;;;;6.90;4.00;;;16.40;99.90;;;;;;5012819;28;20325;-93
2022/10/02 13:16:35;;;;;;;5.70;3.67;;;16.40;99.90;;;;;;5014319;28;20174;-89
2022/10/02 13:19:57;;;;;;;7.83;3.73;;;16.30;99.90;;;;;;5012320;28;20282;-90
2022/10/02 13:22:38;;;;;;;9.70;4.37;;;16.30;99.90;;;;;;5016944;28;20186;-93
2022/10/02 13:25:41;;;;;;;8.90;4.40;;;16.30;99.90;;;;;;5003865;28;20167;-92
2022/10/02 13:28:52;;;;;;;6.03;3.87;;;16.40;99.90;;;;;;5012179;28;20235;-89
2022/10/02 13:31:38;;;;;;;7.43;3.90;;;16.40;99.90;;;;;;4997397;28;20228;-88
2022/10/02 13:34:11;;;;;;;8.97;4.53;;;16.50;99.90;;;;;;4999556;28;20215;-90
2022/10/02 13:36:40;;;;;;;8.20;4.27;;;16.60;99.90;;;;;;4999026;28;20179;-90
2022/10/02 13:39:35;;;;;;;7.93;4.33;;;16.50;99.90;;;;;;5008102;28;20178;-89
2022/10/02 13:42:04;;;;;;;5.97;4.33;;;16.40;99.90;;;;;;4992044;28;20186;-91
2022/10/02 13:44:59;;;;;;;10.63;4.70;;;16.50;99.90;;;;;;5008132;28;20158;-92
2022/10/02 13:47:30;;;;;;;11.77;5.33;;;16.60;99.90;;;;;;5019720;28;20187;-89
2022/10/02 13:50:43;;;;;;;8.80;5.63;;;16.60;99.60;;;;;;5010492;28;20170;-90
2022/10/02 13:53:22;;;;;;;12.80;5.10;;;16.70;99.70;;;;;;5012305;28;20198;-87
2022/10/02 13:56:14;;;;;;;10.83;4.60;;;16.50;99.90;;;;;;5012187;28;20179;-90
2022/10/02 13:59:13;;;;;;;8.03;4.40;;;16.40;99.90;;;;;;5001317;28;20193;-88
2022/10/02 14:01:52;;;;;;;7.73;4.80;;;16.40;99.90;;;;;;5003813;28;20328;-91
2022/10/02 14:04:36;;;;;;;9.70;4.23;;;16.60;99.90;;;;;;5008869;28;20194;-90
2022/10/02 14:07:17;;;;;;;7.63;4.97;;;16.90;99.90;;;;;;5007098;28;20193;-89
2022/10/02 14:10:04;;;;;;;7.53;4.40;;;17.10;98.50;;;;;;5010498;28;20230;-90
2022/10/02 14:12:39;;;;;;;9.93;4.97;;;17.10;97.50;;;;;;5017568;28;20202;-89
2022/10/02 14:15:08;;;;;;;8.90;4.60;;;17.20;97.80;;;;;;5015422;28;20170;-91
2022/10/02 14:18:02;;;;;;;8.27;5.80;;;17.20;96.20;;;;;;5022735;28;20179;-86
2022/10/02 14:20:40;;;;;;;10.33;5.27;;;17.40;94.10;;;;;;5008185;28;20186;-92
2022/10/02 14:23:58;;;;;;;9.90;5.77;;;17.40;94.30;;;;;;5006917;28;20183;-91
2022/10/02 14:26:38;;;;;;;12.17;5.13;;;17.40;92.70;;;;;;5002605;28;20270;-94
2022/10/02 14:29:20;;;;;;;9.57;5.87;;;17.50;94.90;;;;;;5009244;28;20185;-92
2022/10/02 14:32:07;;;;;;;12.03;6.10;;;17.50;93.90;;;;;;5003955;28;20181;-93
2022/10/02 14:35:01;;;;;;;9.27;5.30;;;17.80;92.20;;;;;;5010805;28;20197;-93
2022/10/02 14:37:51;;;;;;;11.90;6.00;;;17.90;91.20;;;;;;5003587;28;20185;-90
2022/10/02 14:40:18;;;;;;;10.90;6.40;;;17.90;90.30;;;;;;5028087;28;20277;-93
2022/10/02 14:43:06;;;;;;;11.93;6.67;;;17.90;87.80;;;;;;5025720;28;20175;-89
2022/10/02 14:45:56;;;;;;;11.73;7.97;;;17.90;84.00;;;;;;5019627;28;20204;-89